»·PEaware :: N5204F KSBA-KBUR

N5204F :: KSBA-KBUR

FLIGHT INFORMATION

Flight Status: Arrived
Operator: Privately registered:
United States
More flights under this callsign
Pilot: David C. (21027)
Aircraft: CESSNA 172 SKYHAWK
(C172)
More flights by this aircraft type
Origin: KSBA Santa Barbara Mun
United States
Destination: KBUR Bob Hope-Burbank
United States
More flights between these airports :: More routes between these airports
Route: +
File this flight plan on PilotEdge
Remarks: CAT8
Altitude:
(Current/Filed)
7,500ft
Speed:
(Current/Filed)
0kts
Departed: 05-Feb-19 02:37 PM
Arrived: 05-Feb-19 03:37 PM
Distance/Time
Traveled:
75nm/1:00
Distance/Time
To Go:
Arrived

Flight Plot

Page will automatically refresh every two minutes.


Map Options




Map Legend


Flown Route
Filed Route
Departure Airport
Arrival Airport
Navaid (VOR, NDB)
Fix

Horizontal Profiles

Position Reports

Time Latitude Longitude Heading Altitude Ground
Speed
05-Feb-19 14:22 34.424922 -119.836838 356 17ft 0kts
05-Feb-19 14:23 34.424922 -119.836838 356 17ft 0kts
05-Feb-19 14:24 34.424922 -119.836838 356 17ft 0kts
05-Feb-19 14:25 34.424922 -119.836838 356 17ft 0kts
05-Feb-19 14:26 34.424922 -119.836838 356 17ft 0kts
05-Feb-19 14:27 34.424922 -119.836838 356 17ft 0kts
05-Feb-19 14:28 34.426742 -119.835556 61 17ft 7kts
05-Feb-19 14:29 34.427031 -119.835270 0 17ft 0kts
05-Feb-19 14:30 34.427031 -119.835270 0 17ft 0kts
05-Feb-19 14:31 34.427031 -119.835270 0 17ft 0kts
05-Feb-19 14:32 34.427031 -119.835270 0 17ft 0kts
05-Feb-19 14:33 34.427031 -119.835270 0 17ft 0kts
05-Feb-19 14:34 34.427031 -119.835270 0 17ft 0kts
05-Feb-19 14:35 34.427031 -119.835270 0 17ft 0kts
05-Feb-19 14:36 34.427690 -119.838016 276 17ft 54kts
05-Feb-19 14:37 34.428611 -119.858430 266 642ft 86kts
05-Feb-19 14:38 34.423279 -119.890673 264 1399ft 111kts
05-Feb-19 14:39 34.420237 -119.925396 258 1391ft 96kts
05-Feb-19 14:40 34.416647 -119.957289 261 1399ft 95kts
05-Feb-19 14:41 34.413912 -119.989592 264 1390ft 95kts
05-Feb-19 14:42 34.412947 -120.021738 272 1358ft 98kts
05-Feb-19 14:43 34.412903 -120.053808 259 1398ft 93kts
05-Feb-19 14:44 34.395842 -120.049689 140 2323ft 84kts
05-Feb-19 14:45 34.383755 -120.026397 100 3196ft 92kts
05-Feb-19 14:46 34.376951 -119.997053 104 4066ft 91kts
05-Feb-19 14:47 34.367465 -119.968902 97 4871ft 91kts
05-Feb-19 14:48 34.362794 -119.939120 106 5598ft 95kts
05-Feb-19 14:49 34.355418 -119.909853 108 6366ft 89kts
05-Feb-19 14:50 34.350795 -119.879102 100 7018ft 91kts
05-Feb-19 14:51 34.343800 -119.848270 101 7515ft 97kts
05-Feb-19 14:52 34.340818 -119.815892 81 7554ft 96kts
05-Feb-19 14:53 34.342876 -119.781027 89 7576ft 107kts
05-Feb-19 14:54 34.346000 -119.744001 88 7540ft 113kts
05-Feb-19 14:55 34.340518 -119.707292 91 7571ft 109kts
05-Feb-19 14:56 34.343221 -119.670246 91 7545ft 113kts
05-Feb-19 14:57 34.345240 -119.633301 79 7588ft 110kts
05-Feb-19 14:58 34.344019 -119.596272 82 7568ft 112kts
05-Feb-19 14:59 34.348806 -119.558944 86 7530ft 113kts
05-Feb-19 15:00 34.348318 -119.521488 89 7575ft 109kts
05-Feb-19 15:01 34.350168 -119.483294 91 7531ft 109kts
05-Feb-19 15:02 34.348072 -119.446866 84 7588ft 108kts
05-Feb-19 15:03 34.345196 -119.410323 99 7563ft 113kts
05-Feb-19 15:04 34.343087 -119.371954 95 7491ft 115kts
05-Feb-19 15:05 34.338511 -119.335785 99 7551ft 110kts
05-Feb-19 15:06 34.334976 -119.299204 95 7574ft 111kts
05-Feb-19 15:07 34.330843 -119.261421 93 7578ft 108kts
05-Feb-19 15:08 34.327934 -119.224546 97 7574ft 111kts
05-Feb-19 15:09 34.322102 -119.187967 105 7610ft 109kts
05-Feb-19 15:10 34.316077 -119.150788 94 7533ft 114kts
05-Feb-19 15:11 34.310847 -119.113513 103 7534ft 113kts
05-Feb-19 15:12 34.305057 -119.076665 101 7562ft 110kts
05-Feb-19 15:13 34.300135 -119.039550 93 7552ft 111kts
05-Feb-19 15:14 34.296504 -119.001767 98 7552ft 108kts
05-Feb-19 15:15 34.290943 -118.965279 104 7539ft 112kts
05-Feb-19 15:16 34.284653 -118.928355 101 7556ft 110kts
05-Feb-19 15:17 34.278907 -118.890929 95 7468ft 116kts
05-Feb-19 15:18 34.277004 -118.852556 93 7460ft 111kts
05-Feb-19 15:19 34.272647 -118.816340 99 7517ft 111kts
05-Feb-19 15:20 34.265401 -118.778485 105 7253ft 121kts
05-Feb-19 15:21 34.255448 -118.740152 106 6854ft 123kts
05-Feb-19 15:22 34.246205 -118.700389 105 6321ft 126kts
05-Feb-19 15:23 34.236565 -118.659062 108 5547ft 122kts
05-Feb-19 15:24 34.231564 -118.621536 97 5514ft 110kts
05-Feb-19 15:25 34.227736 -118.582441 97 5087ft 125kts
05-Feb-19 15:26 34.223329 -118.541699 94 4584ft 125kts
05-Feb-19 15:27 34.218716 -118.497601 109 3673ft 126kts
05-Feb-19 15:28 34.202594 -118.465143 132 3215ft 111kts
05-Feb-19 15:29 34.180113 -118.439439 140 2701ft 107kts
05-Feb-19 15:30 34.162018 -118.414692 102 2479ft 93kts
05-Feb-19 15:31 34.172318 -118.386051 46 2005ft 108kts
05-Feb-19 15:32 34.189978 -118.356057 84 1284ft 100kts
05-Feb-19 15:33 34.189943 -118.324864 80 1696ft 77kts
05-Feb-19 15:34 34.198050 -118.329090 256 1150ft 73kts
05-Feb-19 15:35 34.197712 -118.352602 269 781ft 49kts
05-Feb-19 15:36 34.196801 -118.356404 221 781ft 2kts
05-Feb-19 15:37 34.196800 -118.356405 222 781ft 0kts
05-Feb-19 15:38 34.196800 -118.356405 222 781ft 0kts
05-Feb-19 15:39 34.196750 -118.358800 260 781ft 8kts
05-Feb-19 15:40 34.196259 -118.359271 207 781ft 0kts
05-Feb-19 15:41 34.196259 -118.359271 207 781ft 0kts
05-Feb-19 15:42 34.196259 -118.359271 207 781ft 0kts
05-Feb-19 15:43 34.196259 -118.359271 207 781ft 0kts

Navigation Log

Ident Type
Flight plan parsing failed, navigation log unavailable